Accueil
METAR-TAF:

METAR-TAF

Aéroports :

Lumberton Municipal Airport

Lumberton, Caroline du Nord, États-Unis

latitude: 34-36-26N, longitude: 079-03-36W, altitude: 38 m

METAR: absent

Heure: 17:58 (22:58 UTC)

Prévision

Le bulletin a été fait il y a 5 heures et 38 minutes, à 17:20 UTC
Prévision valable du 20 à 18 UTC au 21 à 18 UTC
Vent 6 kt de nord/nord-ouest
Visibilité: 10 km
Quelques nuages à une hauteur de 6000 ft

TAF: KLBT 201720Z 2018/2118 33006KT P6SM FEW060 AMD NOT SKED

Observations et prévisions météorologiques de plus de 4000 aéroports (messages METAR et TAF).

Les stations disponibles sont représentées par des disques jaunes et rouges sur la carte.

Passer la souris dessus pour voir le nom de la station.

Cliquer dessus pour voir les observations et prévisions météorologiques.

Pour changer de carte: cliquez sur les boutons verts avec une croix noire pour zoomer, sur le bouton vert avec un tiret pour effectuer un zoom arrière, ou sur les flèches vertes pour les cartes adjacentes.


METAR-TAF: